This is the latest recevied weather packets stored in our database for station/object KB1YTR-1. If no packets are shown the sender has not sent any weather packets the latest 1 day(s).
| Time | Temp. | Humidity | Pressure | Rain* | Wind** | Luminosity | Snow |
|---|---|---|---|---|---|---|---|
| 1778100345 | 5° C | 56% | 1013 hPa | 0 mm | - | - | - |
| 1778092331 | 3.33° C | 65% | 1013.2 hPa | 0 mm | - | - | - |
| 1778090579 | 3.33° C | 60% | 1013.3 hPa | 0 mm | - | - | - |
| 1778089038 | 3.33° C | 62% | 1013.4 hPa | 0 mm | - | - | - |
| 1778084912 | 2.22° C | 64% | 1013.8 hPa | 0 mm | - | - | - |
| 1778081652 | 1.67° C | 66% | 1013.7 hPa | 0 mm | - | - | - |
| 1778079908 | 1.67° C | 66% | 1013.6 hPa | 0 mm | - | - | - |
| 1778073272 | 0.56° C | 67% | 1013.4 hPa | 0 mm | - | - | - |
| 1778071496 | 0° C | 72% | 1013.4 hPa | 0 mm | - | - | - |
| 1778070639 | -0.56° C | 73% | 1013.4 hPa | 0 mm | - | - | - |
| 1778069002 | -1.67° C | 78% | 1013.1 hPa | 0 mm | - | - | - |
| 1778067232 | -2.22° C | 80% | 1013 hPa | 0 mm | - | - | - |
| 1778066472 | -2.22° C | 80% | 1012.9 hPa | 0 mm | - | - | - |
| 1778064092 | -2.22° C | 79% | 1012.5 hPa | 0 mm | - | - | - |
| 1778060972 | -2.22° C | 77% | 1012.5 hPa | 0 mm | - | - | - |
| 1778058452 | -1.67° C | 75% | 1012.3 hPa | 0 mm | - | - | - |
| 1778057552 | -1.67° C | 75% | 1012.4 hPa | 0 mm | - | - | - |
| 1778056717 | -1.11° C | 73% | 1012.1 hPa | 0 mm | - | - | - |
| 1778055022 | -1.11° C | 70% | 1012.1 hPa | 0 mm | - | - | - |
| 1778045340 | 1.11° C | 66% | 1011.7 hPa | 0 mm | - | - | - |
| 1778044572 | 1.11° C | 66% | 1011.7 hPa | 0 mm | - | - | - |
| 1778042062 | 1.11° C | 63% | 1011.6 hPa | 0 mm | - | - | - |
| 1778035752 | 1.67° C | 62% | 1011.6 hPa | 0 mm | - | - | - |
| 1778034992 | 1.67° C | 62% | 1011.4 hPa | 0 mm | - | - | - |
| 1778034272 | 1.67° C | 62% | 1011.3 hPa | 0 mm | - | - | - |
* Rain latest hour (hover to see other rain measurements)
** Current wind speed in m/s (hover to see current wind gust speed)